createdAt,value
2019-03-24T00:01:14.850Z,55.92
2019-03-24T00:03:41.417Z,60.38
2019-03-24T00:06:08.032Z,52.38
2019-03-24T00:08:34.619Z,60.55
2019-03-24T00:11:01.225Z,60.85
2019-03-24T00:13:27.797Z,58.48
2019-03-24T00:15:54.397Z,51.53
2019-03-24T00:18:20.988Z,54.90
2019-03-24T00:20:47.584Z,48.52
2019-03-24T00:23:14.153Z,54.58
2019-03-24T00:25:40.751Z,57.85
2019-03-24T00:28:07.340Z,50.55
2019-03-24T00:30:33.934Z,49.60
2019-03-24T00:33:00.511Z,51.75
2019-03-24T00:35:27.166Z,53.17
2019-03-24T00:37:53.744Z,56.95
2019-03-24T00:40:20.439Z,48.45
2019-03-24T00:42:47.019Z,49.42
2019-03-24T00:45:13.620Z,52.48
2019-03-24T00:47:40.192Z,50.15
2019-03-24T00:50:06.776Z,51.02
2019-03-24T00:52:33.350Z,52.15
2019-03-24T00:54:59.917Z,44.08
2019-03-24T00:57:26.495Z,50.73
2019-03-24T00:59:53.073Z,47.75
2019-03-24T01:02:19.658Z,48.98
2019-03-24T01:04:46.219Z,46.83
2019-03-24T01:07:12.809Z,49.45
2019-03-24T01:09:39.380Z,47.20
2019-03-24T01:12:05.958Z,47.90
2019-03-24T01:14:32.539Z,50.10
2019-03-24T01:16:59.124Z,51.90
2019-03-24T01:19:25.697Z,49.15
2019-03-24T01:21:52.269Z,50.98
2019-03-24T01:24:18.854Z,44.93
2019-03-24T01:26:45.456Z,42.58
2019-03-24T01:29:12.035Z,48.02
2019-03-24T01:31:38.624Z,45.17
2019-03-24T01:34:05.206Z,48.52
2019-03-24T01:36:31.827Z,51.28
2019-03-24T01:38:58.395Z,45.23
2019-03-24T01:41:25.007Z,43.60
2019-03-24T01:43:51.562Z,52.33
2019-03-24T01:46:18.158Z,51.55
2019-03-24T01:48:44.735Z,50.35
2019-03-24T01:51:11.341Z,53.50
2019-03-24T01:53:37.921Z,50.28
2019-03-24T01:56:04.511Z,56.88
2019-03-24T01:58:31.085Z,61.95
2019-03-24T02:00:57.748Z,56.83
2019-03-24T02:03:24.327Z,59.93
2019-03-24T02:05:50.923Z,63.08
2019-03-24T02:08:17.504Z,57.58
2019-03-24T02:10:44.080Z,57.78
2019-03-24T02:13:10.656Z,59.18
2019-03-24T02:15:37.308Z,59.83
2019-03-24T02:18:03.894Z,54.83
2019-03-24T02:20:30.474Z,52.85
2019-03-24T02:22:57.045Z,53.50
2019-03-24T02:25:23.624Z,57.78
2019-03-24T02:27:50.211Z,55.85
2019-03-24T02:30:16.786Z,53.28
2019-03-24T02:32:43.361Z,50.65
2019-03-24T02:35:09.938Z,50.30
2019-03-24T02:37:36.560Z,51.58
2019-03-24T02:40:03.169Z,50.08
2019-03-24T02:42:29.733Z,47.10
2019-03-24T02:44:56.304Z,46.02
2019-03-24T02:47:22.879Z,48.98
2019-03-24T02:49:49.456Z,43.38
2019-03-24T02:52:16.031Z,45.92
2019-03-24T02:54:42.616Z,48.52
2019-03-24T02:57:09.186Z,47.13
2019-03-24T02:59:35.823Z,50.08
2019-03-24T03:02:02.452Z,45.78
2019-03-24T03:04:29.021Z,46.77
2019-03-24T03:06:55.627Z,47.88
2019-03-24T03:09:22.202Z,48.58
2019-03-24T03:11:48.811Z,46.02
2019-03-24T03:14:15.394Z,46.80
2019-03-24T03:16:42.033Z,48.80
2019-03-24T03:19:08.597Z,49.00
2019-03-24T03:21:35.206Z,51.68
2019-03-24T03:24:01.779Z,55.60
2019-03-24T03:26:28.401Z,53.95
2019-03-24T03:28:54.977Z,48.02
2019-03-24T03:31:21.569Z,46.92
2019-03-24T03:33:48.149Z,48.85
2019-03-24T03:36:14.789Z,47.17
2019-03-24T03:38:41.356Z,46.58
2019-03-24T03:41:07.938Z,49.10
2019-03-24T03:43:34.686Z,47.83
2019-03-24T03:46:01.273Z,45.38
2019-03-24T03:48:27.832Z,46.40
2019-03-24T03:50:54.416Z,49.63
2019-03-24T03:53:21.026Z,49.60
2019-03-24T03:55:47.596Z,49.03
2019-03-24T03:58:15.215Z,52.48
2019-03-24T04:00:41.789Z,45.98
2019-03-24T04:03:08.399Z,45.10
2019-03-24T04:05:34.977Z,45.38
2019-03-24T04:08:01.587Z,44.60
2019-03-24T04:10:28.158Z,47.67
2019-03-24T04:12:54.759Z,44.95
2019-03-24T04:15:21.342Z,40.60
2019-03-24T04:17:47.941Z,43.50
2019-03-24T04:20:14.663Z,46.92
2019-03-24T04:22:41.318Z,44.03
2019-03-24T04:25:07.902Z,44.85
2019-03-24T04:27:34.518Z,43.35
2019-03-24T04:30:01.093Z,41.13
2019-03-24T04:32:27.694Z,46.73
2019-03-24T04:34:54.277Z,48.28
2019-03-24T04:37:20.900Z,40.40
2019-03-24T04:39:47.489Z,40.45
2019-03-24T04:42:14.179Z,40.50
2019-03-24T04:44:40.761Z,45.98
2019-03-24T04:47:16.367Z,39.80
2019-03-24T04:49:35.657Z,46.85
2019-03-24T04:52:02.284Z,44.40
2019-03-24T04:54:28.868Z,43.73
2019-03-24T04:56:55.440Z,46.28
2019-03-24T04:59:22.031Z,48.50
2019-03-24T05:01:48.608Z,48.05
2019-03-24T05:04:15.192Z,45.15
2019-03-24T05:06:41.767Z,43.13
2019-03-24T05:09:08.346Z,45.40
2019-03-24T05:11:34.935Z,43.92
2019-03-24T05:14:01.517Z,45.25
2019-03-24T05:16:28.097Z,46.35
2019-03-24T05:18:54.684Z,39.10
2019-03-24T05:21:21.258Z,44.25
2019-03-24T05:23:47.848Z,41.98
2019-03-24T05:26:14.457Z,46.25
2019-03-24T05:28:41.034Z,42.88
2019-03-24T05:31:07.613Z,42.08
2019-03-24T05:33:34.188Z,40.45
2019-03-24T05:36:00.766Z,36.13
2019-03-24T05:38:27.345Z,37.35
2019-03-24T05:40:53.923Z,37.90
2019-03-24T05:43:20.550Z,37.30
2019-03-24T05:45:47.141Z,36.10
2019-03-24T05:48:13.733Z,34.88
2019-03-24T05:50:40.317Z,36.42
2019-03-24T05:53:06.896Z,31.85
2019-03-24T05:55:33.477Z,32.78
2019-03-24T05:58:00.174Z,34.05
2019-03-24T06:00:26.744Z,28.98
2019-03-24T06:02:53.326Z,30.05
2019-03-24T06:05:19.895Z,29.25
2019-03-24T06:07:46.490Z,29.12
2019-03-24T06:10:13.084Z,27.55
2019-03-24T06:12:39.652Z,28.30
2019-03-24T06:15:06.235Z,26.90
2019-03-24T06:17:32.835Z,27.22
2019-03-24T06:19:59.423Z,24.90
2019-03-24T06:22:26.001Z,27.35
2019-03-24T06:24:52.614Z,26.93
2019-03-24T06:27:19.191Z,25.65
2019-03-24T06:29:45.792Z,24.30
2019-03-24T06:32:12.371Z,25.43
2019-03-24T06:34:38.976Z,23.60
2019-03-24T06:37:05.550Z,26.95
2019-03-24T06:39:32.176Z,25.92
2019-03-24T06:41:58.753Z,26.17
2019-03-24T06:44:25.362Z,23.45
2019-03-24T06:46:51.930Z,21.17
2019-03-24T06:49:18.529Z,22.07
2019-03-24T06:51:45.109Z,22.17
2019-03-24T06:54:11.734Z,21.87
2019-03-24T06:56:38.309Z,20.62
2019-03-24T06:59:04.926Z,19.00
2019-03-24T07:01:31.497Z,19.67
2019-03-24T07:03:58.104Z,18.12
2019-03-24T07:06:24.682Z,19.45
2019-03-24T07:08:51.312Z,17.75
2019-03-24T07:11:17.959Z,17.02
2019-03-24T07:13:44.602Z,16.35
2019-03-24T07:16:11.185Z,16.65
2019-03-24T07:18:37.815Z,14.98
2019-03-24T07:21:04.391Z,17.10
2019-03-24T07:23:31.007Z,15.25
2019-03-24T07:25:57.578Z,16.35
2019-03-24T07:28:25.043Z,15.10
2019-03-24T07:30:51.750Z,15.20
2019-03-24T07:33:18.382Z,13.50
2019-03-24T07:35:44.948Z,16.15
2019-03-24T07:38:11.586Z,15.43
2019-03-24T07:40:38.173Z,15.03
2019-03-24T07:43:04.748Z,15.53
2019-03-24T07:45:31.320Z,14.75
2019-03-24T07:47:57.898Z,14.50
2019-03-24T07:50:24.480Z,15.98
2019-03-24T07:52:51.061Z,15.28
2019-03-24T07:55:17.641Z,15.45
2019-03-24T07:57:44.225Z,15.10
2019-03-24T08:00:10.805Z,15.18
2019-03-24T08:02:37.385Z,12.75
2019-03-24T08:05:03.985Z,14.00
2019-03-24T08:07:30.576Z,13.32
2019-03-24T08:09:57.199Z,15.23
2019-03-24T08:12:23.784Z,14.68
2019-03-24T08:14:50.359Z,12.78
2019-03-24T08:17:16.940Z,15.15
2019-03-24T08:19:43.518Z,15.68
2019-03-24T08:22:10.094Z,15.45
2019-03-24T08:24:36.671Z,13.80
2019-03-24T08:27:03.326Z,14.30
2019-03-24T08:29:29.914Z,14.75
2019-03-24T08:31:56.502Z,14.40
2019-03-24T08:34:23.070Z,15.15
2019-03-24T08:36:49.656Z,14.30
2019-03-24T08:39:16.232Z,13.45
2019-03-24T08:41:42.802Z,13.70
2019-03-24T08:44:09.387Z,14.05
2019-03-24T08:46:35.972Z,14.68
2019-03-24T08:49:02.593Z,14.03
2019-03-24T08:51:29.151Z,14.25
2019-03-24T08:53:55.750Z,12.40
2019-03-24T08:56:22.331Z,13.78
2019-03-24T08:58:48.942Z,13.10
2019-03-24T09:01:15.517Z,14.33
2019-03-24T09:03:42.197Z,13.10
2019-03-24T09:06:08.789Z,14.30
2019-03-24T09:08:35.453Z,15.98
2019-03-24T09:11:02.033Z,13.85
2019-03-24T09:13:28.606Z,13.20
2019-03-24T09:15:55.188Z,13.28
2019-03-24T09:18:21.778Z,15.05
2019-03-24T09:20:48.366Z,13.10
2019-03-24T09:23:14.947Z,14.35
2019-03-24T09:25:41.518Z,12.47
2019-03-24T09:28:09.197Z,13.03
2019-03-24T09:30:36.116Z,13.22
2019-03-24T09:33:02.724Z,14.13
2019-03-24T09:35:29.334Z,16.62
2019-03-24T09:37:55.901Z,14.78
2019-03-24T09:40:22.517Z,13.60
2019-03-24T09:42:49.092Z,14.30
2019-03-24T09:45:15.762Z,15.20
2019-03-24T09:47:42.379Z,13.72
2019-03-24T09:50:09.034Z,12.95
2019-03-24T09:52:35.612Z,15.13
2019-03-24T09:55:02.243Z,14.55
2019-03-24T09:57:28.814Z,11.48
2019-03-24T09:59:55.435Z,14.50
2019-03-24T10:02:22.015Z,11.65
2019-03-24T10:04:48.627Z,12.78
2019-03-24T10:07:15.213Z,16.12
2019-03-24T10:09:41.825Z,14.40
2019-03-24T10:12:08.429Z,13.95
2019-03-24T10:14:35.036Z,13.20
2019-03-24T10:17:01.720Z,14.68
2019-03-24T10:19:28.344Z,14.45
2019-03-24T10:21:54.921Z,16.20
2019-03-24T10:24:21.537Z,15.25
2019-03-24T10:26:48.114Z,14.90
2019-03-24T10:29:14.724Z,13.80
2019-03-24T10:31:42.627Z,12.55
2019-03-24T10:34:09.644Z,11.85
2019-03-24T10:36:36.216Z,14.30
2019-03-24T10:39:02.800Z,13.45
2019-03-24T10:41:29.392Z,14.58
2019-03-24T10:43:55.963Z,13.70
2019-03-24T10:46:22.553Z,15.03
2019-03-24T10:48:49.169Z,13.65
2019-03-24T10:51:15.759Z,15.40
2019-03-24T10:53:42.332Z,12.70
2019-03-24T10:56:08.915Z,18.32
2019-03-24T10:58:35.580Z,19.32
2019-03-24T11:01:02.206Z,16.75
2019-03-24T11:03:28.783Z,15.13
2019-03-24T11:05:55.370Z,17.35
2019-03-24T11:08:21.955Z,14.10
2019-03-24T11:10:48.538Z,13.18
2019-03-24T11:13:15.114Z,12.53
2019-03-24T11:15:41.691Z,14.78
2019-03-24T11:18:08.261Z,14.85
2019-03-24T11:20:34.879Z,14.90
2019-03-24T11:23:01.455Z,14.47
2019-03-24T11:25:28.066Z,14.93
2019-03-24T11:27:54.639Z,14.13
2019-03-24T11:30:21.251Z,13.80
2019-03-24T11:32:47.832Z,13.62
2019-03-24T11:35:14.421Z,14.38
2019-03-24T11:37:41.007Z,15.03
2019-03-24T11:40:07.626Z,13.38
2019-03-24T11:42:34.195Z,13.85
2019-03-24T11:45:00.866Z,13.13
2019-03-24T11:47:27.565Z,10.90
2019-03-24T11:49:54.174Z,12.98
2019-03-24T11:52:23.003Z,10.88
2019-03-24T11:54:49.593Z,11.55
2019-03-24T11:57:16.164Z,10.95
2019-03-24T11:59:42.739Z,9.45
2019-03-24T12:02:09.323Z,10.30
2019-03-24T12:04:35.902Z,10.98
2019-03-24T12:07:02.484Z,10.82
2019-03-24T12:09:29.070Z,10.68
2019-03-24T12:11:55.640Z,9.78
2019-03-24T12:14:22.236Z,9.23
2019-03-24T12:16:48.810Z,8.25
2019-03-24T12:19:15.390Z,10.48
2019-03-24T12:21:41.970Z,9.55
2019-03-24T12:24:08.540Z,8.65
2019-03-24T12:26:35.125Z,9.08
2019-03-24T12:29:01.687Z,8.48
2019-03-24T12:31:28.266Z,9.40
2019-03-24T12:33:54.829Z,8.88
2019-03-24T12:36:21.422Z,13.45
2019-03-24T12:38:47.987Z,7.78
2019-03-24T12:41:14.593Z,6.78
2019-03-24T12:43:41.189Z,7.08
2019-03-24T12:46:07.809Z,7.78
2019-03-24T12:48:34.382Z,8.33
2019-03-24T12:51:00.968Z,10.90
2019-03-24T12:53:27.547Z,8.90
2019-03-24T12:55:54.157Z,7.65
2019-03-24T12:58:20.752Z,7.55
2019-03-24T13:00:47.358Z,8.70
2019-03-24T13:03:13.916Z,10.20
2019-03-24T13:05:40.491Z,7.12
2019-03-24T13:08:07.059Z,6.85
2019-03-24T13:10:33.631Z,7.05
2019-03-24T13:13:00.202Z,7.90
2019-03-24T13:15:26.780Z,8.18
2019-03-24T13:17:53.351Z,8.15
2019-03-24T13:20:35.239Z,6.87
2019-03-24T13:22:48.234Z,7.50
2019-03-24T13:25:14.801Z,9.25
2019-03-24T13:27:41.422Z,7.72
2019-03-24T13:30:08.034Z,8.58
2019-03-24T13:32:34.647Z,9.25
2019-03-24T13:35:01.219Z,9.10
2019-03-24T13:37:27.803Z,8.00
2019-03-24T13:39:54.368Z,7.78
2019-03-24T13:42:20.981Z,13.65
2019-03-24T13:44:47.547Z,9.38
2019-03-24T13:47:14.142Z,8.05
2019-03-24T13:49:40.702Z,8.40
2019-03-24T13:52:07.295Z,8.23
2019-03-24T13:54:33.854Z,8.15
2019-03-24T13:57:00.477Z,8.90
2019-03-24T13:59:27.053Z,9.00
2019-03-24T14:01:53.638Z,9.03
2019-03-24T14:04:20.206Z,8.35
2019-03-24T14:06:46.801Z,8.05
2019-03-24T14:09:13.370Z,7.70
2019-03-24T14:11:39.983Z,9.85
2019-03-24T14:14:06.563Z,12.40
2019-03-24T14:16:33.156Z,9.55
2019-03-24T14:18:59.828Z,9.15
2019-03-24T14:21:26.421Z,10.28
2019-03-24T14:23:53.027Z,9.08
2019-03-24T14:26:19.591Z,8.60
2019-03-24T14:28:46.167Z,8.40
2019-03-24T14:31:12.737Z,7.95
2019-03-24T14:33:39.314Z,8.13
2019-03-24T14:36:05.883Z,8.08
2019-03-24T14:38:32.634Z,8.63
2019-03-24T14:40:59.205Z,8.05
2019-03-24T14:43:25.774Z,7.03
2019-03-24T14:45:52.342Z,7.12
2019-03-24T14:48:18.909Z,7.12
2019-03-24T14:50:54.079Z,6.97
2019-03-24T14:53:13.793Z,7.53
2019-03-24T14:55:40.365Z,7.60
2019-03-24T14:58:06.934Z,7.05
2019-03-24T15:00:33.510Z,8.25
2019-03-24T15:03:00.079Z,7.10
2019-03-24T15:05:26.641Z,8.20
2019-03-24T15:07:53.220Z,7.45
2019-03-24T15:10:19.795Z,7.22
2019-03-24T15:12:46.362Z,6.85
2019-03-24T15:15:12.933Z,6.97
2019-03-24T15:17:39.509Z,7.60
2019-03-24T15:20:06.090Z,7.58
2019-03-24T15:22:32.659Z,7.78
2019-03-24T15:24:59.229Z,6.80
2019-03-24T15:27:25.809Z,10.68
2019-03-24T15:29:52.381Z,14.03
2019-03-24T15:32:18.950Z,11.08
2019-03-24T15:34:45.528Z,12.23
2019-03-24T15:37:12.103Z,11.60
2019-03-24T15:39:38.672Z,15.78
2019-03-24T15:42:05.250Z,8.83
2019-03-24T15:44:31.830Z,7.85
2019-03-24T15:46:58.403Z,8.10
2019-03-24T15:49:24.995Z,8.45
2019-03-24T15:51:51.562Z,8.35
2019-03-24T15:54:18.182Z,6.78
2019-03-24T15:56:44.772Z,6.60
2019-03-24T15:59:11.383Z,6.83
2019-03-24T16:01:37.980Z,6.45
2019-03-24T16:04:04.594Z,8.05
2019-03-24T16:06:31.184Z,6.60
2019-03-24T16:08:57.779Z,6.25
2019-03-24T16:11:24.352Z,5.92
2019-03-24T16:13:50.966Z,6.50
2019-03-24T16:16:17.543Z,6.47
2019-03-24T16:18:44.154Z,6.55
2019-03-24T16:21:10.723Z,6.87
2019-03-24T16:23:37.386Z,5.60
2019-03-24T16:26:04.017Z,6.20
2019-03-24T16:28:30.618Z,7.15
2019-03-24T16:30:57.201Z,9.50
2019-03-24T16:33:23.804Z,8.20
2019-03-24T16:35:50.458Z,8.60
2019-03-24T16:38:17.094Z,12.80
2019-03-24T16:40:43.675Z,14.28
2019-03-24T16:43:11.365Z,9.88
2019-03-24T16:45:38.037Z,11.88
2019-03-24T16:48:04.626Z,11.45
2019-03-24T16:50:31.197Z,15.93
2019-03-24T16:52:57.800Z,19.82
2019-03-24T16:55:24.369Z,20.43
2019-03-24T16:57:50.984Z,25.62
2019-03-24T17:00:18.616Z,21.30
2019-03-24T17:02:45.222Z,19.00
2019-03-24T17:05:11.802Z,28.38
2019-03-24T17:07:38.393Z,16.82
2019-03-24T17:10:04.967Z,16.17
2019-03-24T17:12:31.540Z,12.82
2019-03-24T17:14:58.126Z,11.00
2019-03-24T17:17:24.707Z,11.55
2019-03-24T17:19:51.276Z,12.93
2019-03-24T17:22:17.850Z,12.70
2019-03-24T17:24:44.450Z,13.40
2019-03-24T17:27:11.029Z,14.78
2019-03-24T17:29:37.620Z,15.80
2019-03-24T17:32:04.190Z,17.60
2019-03-24T17:34:30.767Z,17.52
2019-03-24T17:36:57.437Z,15.43
2019-03-24T17:39:23.985Z,18.82
2019-03-24T17:41:50.585Z,18.60
2019-03-24T17:44:17.159Z,15.83
2019-03-24T17:46:43.779Z,14.65
2019-03-24T17:49:10.385Z,14.95
2019-03-24T17:51:36.949Z,19.15
2019-03-24T17:54:03.531Z,26.55
2019-03-24T17:56:30.105Z,29.30
2019-03-24T17:58:56.684Z,36.17
2019-03-24T18:01:23.255Z,41.30
2019-03-24T18:03:49.829Z,47.25
2019-03-24T18:06:16.400Z,50.43
2019-03-24T18:08:42.981Z,47.75
2019-03-24T18:11:09.546Z,46.63
2019-03-24T18:13:36.126Z,43.40
2019-03-24T18:16:02.732Z,43.85
2019-03-24T18:18:29.455Z,31.68
2019-03-24T18:20:56.655Z,37.85
2019-03-24T18:23:23.269Z,34.10
2019-03-24T18:25:49.843Z,41.18
2019-03-24T18:28:16.453Z,49.70
2019-03-24T18:30:43.024Z,45.75
2019-03-24T18:33:09.628Z,34.30
2019-03-24T18:35:36.202Z,34.00
2019-03-24T18:38:02.815Z,36.88
2019-03-24T18:40:29.395Z,51.83
2019-03-24T18:42:56.033Z,60.58
2019-03-24T18:45:22.607Z,56.48
2019-03-24T18:47:49.234Z,54.98
2019-03-24T18:50:15.828Z,54.55
2019-03-24T18:52:42.402Z,58.45
2019-03-24T18:55:08.995Z,50.75
2019-03-24T18:57:35.574Z,49.90
2019-03-24T19:00:02.198Z,46.08
2019-03-24T19:02:28.785Z,48.45
2019-03-24T19:04:55.396Z,43.90
2019-03-24T19:07:21.970Z,42.13
2019-03-24T19:09:48.561Z,42.53
2019-03-24T19:12:15.143Z,42.10
2019-03-24T19:14:41.756Z,43.65
2019-03-24T19:17:10.125Z,42.13
2019-03-24T19:19:36.659Z,42.03
2019-03-24T19:22:03.265Z,44.55
2019-03-24T19:24:29.863Z,44.60
2019-03-24T19:26:56.435Z,45.80
2019-03-24T19:29:23.051Z,46.60
2019-03-24T19:31:49.636Z,46.83
2019-03-24T19:34:16.233Z,41.92
2019-03-24T19:36:42.840Z,44.33
2019-03-24T19:39:09.450Z,47.35
2019-03-24T19:41:36.040Z,39.42
2019-03-24T19:44:02.736Z,44.18
2019-03-24T19:46:29.320Z,44.53
2019-03-24T19:48:55.908Z,45.35
2019-03-24T19:51:22.486Z,44.67
2019-03-24T19:53:49.068Z,43.85
2019-03-24T19:56:15.652Z,44.60
2019-03-24T19:58:42.239Z,44.75
2019-03-24T20:01:08.814Z,48.38
2019-03-24T20:03:36.394Z,47.60
2019-03-24T20:06:02.974Z,44.15
2019-03-24T20:08:29.546Z,49.93
2019-03-24T20:10:57.124Z,42.08
2019-03-24T20:13:23.702Z,41.28
2019-03-24T20:15:50.281Z,51.55
2019-03-24T20:18:16.854Z,51.13
2019-03-24T20:20:43.451Z,46.13
2019-03-24T20:23:10.021Z,45.35
2019-03-24T20:25:36.594Z,45.85
2019-03-24T20:28:03.177Z,42.25
2019-03-24T20:30:29.789Z,46.55
2019-03-24T20:32:56.366Z,46.42
2019-03-24T20:35:22.974Z,47.20
2019-03-24T20:37:49.557Z,46.48
2019-03-24T20:40:16.154Z,47.27
2019-03-24T20:42:42.737Z,48.98
2019-03-24T20:45:09.348Z,55.88
2019-03-24T20:47:35.929Z,55.00
2019-03-24T20:50:03.804Z,56.08
2019-03-24T20:52:30.508Z,49.58
2019-03-24T20:54:57.121Z,58.30
2019-03-24T20:57:23.701Z,59.67
2019-03-24T20:59:52.092Z,61.63
2019-03-24T21:02:18.621Z,66.67
2019-03-24T21:04:45.368Z,60.38
2019-03-24T21:07:12.002Z,60.08
2019-03-24T21:09:39.684Z,60.78
2019-03-24T21:12:06.248Z,64.35
2019-03-24T21:14:32.829Z,65.47
2019-03-24T21:16:59.409Z,59.80
2019-03-24T21:19:26.005Z,62.43
2019-03-24T21:21:52.604Z,68.22
2019-03-24T21:24:19.186Z,73.35
2019-03-24T21:26:45.881Z,68.83
2019-03-24T21:29:12.471Z,68.90
2019-03-24T21:31:39.052Z,66.80
2019-03-24T21:34:05.645Z,70.17
2019-03-24T21:36:32.212Z,62.80
2019-03-24T21:38:58.824Z,70.75
2019-03-24T21:41:25.434Z,76.33
2019-03-24T21:43:52.012Z,84.05
2019-03-24T21:46:18.642Z,83.95
2019-03-24T21:48:45.212Z,85.85
2019-03-24T21:51:11.836Z,97.37
2019-03-24T21:53:40.819Z,96.15
2019-03-24T21:56:06.740Z,88.07
2019-03-24T21:58:33.316Z,83.30
2019-03-24T22:00:59.926Z,80.12
2019-03-24T22:03:26.506Z,78.20
2019-03-24T22:05:53.127Z,83.07
2019-03-24T22:08:19.715Z,88.58
2019-03-24T22:10:46.322Z,79.07
2019-03-24T22:13:12.909Z,78.28
2019-03-24T22:15:39.515Z,78.72
2019-03-24T22:18:06.089Z,77.97
2019-03-24T22:20:32.704Z,75.57
2019-03-24T22:22:59.269Z,71.12
2019-03-24T22:25:25.891Z,68.90
2019-03-24T22:27:52.470Z,69.62
2019-03-24T22:30:19.045Z,72.53
2019-03-24T22:32:45.618Z,66.30
2019-03-24T22:35:12.189Z,43.80
2019-03-24T22:37:38.767Z,40.15
2019-03-24T22:40:05.347Z,44.15
2019-03-24T22:42:31.927Z,39.27
2019-03-24T22:44:58.499Z,30.88
2019-03-24T22:47:25.094Z,13.62
2019-03-24T22:49:51.665Z,7.37
2019-03-24T22:52:18.280Z,5.03
2019-03-24T22:54:44.894Z,4.55
2019-03-24T22:57:11.495Z,4.75
2019-03-24T22:59:38.073Z,6.83
2019-03-24T23:02:04.680Z,9.90
2019-03-24T23:04:31.260Z,11.30
2019-03-24T23:06:57.864Z,14.03
2019-03-24T23:09:24.439Z,13.28
2019-03-24T23:11:51.092Z,12.58
2019-03-24T23:14:17.671Z,9.58
2019-03-24T23:16:44.277Z,8.48
2019-03-24T23:19:10.865Z,7.00
2019-03-24T23:21:37.465Z,6.78
2019-03-24T23:24:14.967Z,7.70
2019-03-24T23:26:32.368Z,7.33
2019-03-24T23:28:58.938Z,6.83
2019-03-24T23:31:25.738Z,6.40
2019-03-24T23:33:52.313Z,6.80
2019-03-24T23:36:18.926Z,7.50
2019-03-24T23:38:45.501Z,6.95
2019-03-24T23:41:12.070Z,6.47
2019-03-24T23:43:38.647Z,7.50
2019-03-24T23:46:05.229Z,6.37
2019-03-24T23:48:31.800Z,6.70
2019-03-24T23:50:58.427Z,6.83
2019-03-24T23:53:25.009Z,6.95
2019-03-24T23:55:51.660Z,6.03
2019-03-24T23:58:18.235Z,7.75
